createdAt,value
2024-05-09T06:38:55.101Z,13.50
2024-05-09T06:41:26.604Z,13.60
2024-05-09T06:44:02.913Z,13.70
2024-05-09T06:46:34.229Z,13.90
2024-05-09T06:49:13.751Z,14.10
2024-05-09T06:51:43.864Z,14.40
2024-05-09T06:54:21.458Z,14.40
2024-05-09T06:56:51.735Z,14.50
2024-05-09T06:59:37.147Z,14.60
2024-05-09T07:02:10.605Z,14.90
2024-05-09T07:04:41.560Z,15.20
2024-05-09T07:07:17.968Z,15.10
2024-05-09T07:09:52.604Z,15.20
2024-05-09T07:12:26.538Z,15.50
2024-05-09T07:14:58.351Z,15.60
2024-05-09T07:17:31.893Z,15.80
2024-05-09T07:20:08.970Z,15.90
2024-05-09T07:22:44.809Z,16.20
2024-05-09T07:25:19.646Z,16.40
2024-05-09T07:28:01.722Z,16.50
2024-05-09T07:30:35.429Z,16.70
2024-05-09T07:33:10.686Z,16.90
2024-05-09T07:35:41.546Z,17.40
2024-05-09T07:38:17.196Z,17.40
2024-05-09T07:40:51.472Z,17.70
2024-05-09T07:43:25.805Z,18.00
2024-05-09T07:45:58.376Z,18.20
2024-05-09T07:50:34.466Z,18.50
2024-05-09T07:53:08.347Z,18.70
2024-05-09T07:54:24.940Z,18.80
2024-05-09T07:57:00.282Z,19.10
2024-05-09T07:59:37.650Z,19.20
2024-05-09T08:02:12.552Z,19.00
2024-05-09T08:04:46.723Z,18.90
2024-05-09T08:07:20.767Z,19.20
2024-05-09T08:09:54.087Z,19.60
2024-05-09T08:12:28.695Z,19.90
2024-05-09T08:15:03.339Z,20.20
2024-05-09T08:17:33.597Z,20.50
2024-05-09T08:20:07.630Z,20.40
2024-05-09T08:22:38.645Z,19.80
2024-05-09T08:25:16.740Z,19.40
2024-05-09T08:27:50.331Z,19.40
2024-05-09T08:30:30.110Z,19.70
2024-05-09T08:33:10.888Z,20.20
2024-05-09T08:35:45.568Z,20.20
2024-05-09T08:38:15.269Z,20.60
2024-05-09T08:40:48.904Z,20.70
2024-05-09T08:43:23.414Z,21.00
2024-05-09T08:45:57.742Z,20.80
2024-05-09T08:48:28.560Z,20.90
2024-05-09T08:51:02.515Z,21.10
2024-05-09T08:53:41.285Z,21.20
2024-05-09T08:56:16.863Z,21.10
2024-05-09T08:58:51.266Z,20.90
2024-05-09T09:01:24.847Z,20.50
2024-05-09T09:03:57.324Z,20.00
2024-05-09T09:06:32.492Z,20.30
2024-05-09T09:09:04.062Z,20.60
2024-05-09T09:11:43.277Z,21.00
2024-05-09T09:14:21.172Z,21.00
2024-05-09T09:16:52.981Z,21.20
2024-05-09T09:19:27.759Z,21.10
2024-05-09T09:22:05.081Z,21.20
2024-05-09T09:24:38.529Z,21.40
2024-05-09T09:27:09.926Z,21.40
2024-05-09T09:29:48.208Z,21.50
2024-05-09T09:32:19.753Z,21.40
2024-05-09T09:34:55.964Z,21.30
2024-05-09T09:37:31.505Z,21.60
2024-05-09T09:40:15.680Z,21.60
2024-05-09T09:42:50.231Z,21.70
2024-05-09T09:45:27.561Z,21.90
2024-05-09T09:47:59.925Z,21.60
2024-05-09T09:50:35.388Z,21.50
2024-05-09T09:53:16.898Z,21.10
2024-05-09T09:55:48.063Z,21.10
2024-05-09T09:58:21.983Z,21.20
2024-05-09T10:00:56.688Z,21.50
2024-05-09T10:03:40.049Z,21.30
2024-05-09T10:06:11.521Z,21.60
2024-05-09T10:08:49.364Z,21.80
2024-05-09T10:11:22.363Z,21.90
2024-05-09T10:13:57.766Z,22.10
2024-05-09T10:16:32.667Z,22.20
2024-05-09T10:19:07.881Z,22.30
2024-05-09T10:21:48.248Z,22.50
2024-05-09T10:24:25.765Z,22.40
2024-05-09T10:26:56.087Z,22.30
2024-05-09T10:29:33.807Z,22.50
2024-05-09T10:32:13.108Z,22.50
2024-05-09T10:34:48.953Z,22.40
2024-05-09T10:37:21.378Z,22.50
2024-05-09T10:39:55.524Z,22.50
2024-05-09T10:42:26.282Z,22.50
2024-05-09T10:45:01.468Z,22.40
2024-05-09T10:47:34.936Z,22.20
2024-05-09T10:50:15.443Z,22.30
2024-05-09T10:52:54.813Z,22.50
2024-05-09T11:00:43.139Z,22.60
2024-05-09T11:03:25.308Z,22.60
2024-05-09T11:05:58.764Z,22.50
2024-05-09T11:08:35.766Z,22.70
2024-05-09T11:11:15.369Z,22.70
2024-05-09T11:13:45.526Z,22.70
2024-05-09T11:16:28.587Z,22.70
2024-05-09T11:19:04.045Z,22.70
2024-05-09T11:21:39.496Z,22.40
2024-05-09T11:24:12.013Z,22.50
2024-05-09T11:26:57.603Z,22.60
2024-05-09T11:29:40.747Z,22.70
2024-05-09T11:32:16.142Z,22.60
2024-05-09T11:34:51.445Z,22.60
2024-05-09T11:37:24.922Z,22.70
2024-05-09T11:42:41.225Z,22.80
2024-05-09T11:45:17.180Z,22.70
2024-05-09T11:47:53.389Z,22.40
2024-05-09T11:50:34.679Z,22.50
2024-05-09T11:53:09.322Z,22.60
2024-05-09T11:55:43.469Z,22.80
2024-05-09T11:58:19.684Z,22.70
2024-05-09T12:00:53.703Z,22.80
2024-05-09T12:03:28.480Z,22.50
2024-05-09T12:06:03.498Z,22.60
2024-05-09T12:08:37.203Z,22.80
2024-05-09T12:11:09.735Z,22.80
2024-05-09T12:13:45.807Z,22.40
2024-05-09T12:16:16.937Z,22.00
2024-05-09T12:18:54.180Z,22.10
2024-05-09T12:21:29.305Z,22.40
2024-05-09T12:31:39.820Z,22.60
2024-05-09T12:34:14.384Z,22.60
2024-05-09T12:36:47.981Z,22.40
2024-05-09T12:39:21.151Z,22.20
2024-05-09T12:41:51.585Z,22.50
2024-05-09T12:44:39.603Z,22.60
2024-05-09T12:47:10.587Z,22.60
2024-05-09T12:49:46.357Z,22.50
2024-05-09T12:52:20.818Z,22.50
2024-05-09T12:54:53.617Z,22.50
2024-05-09T12:57:24.685Z,22.40
2024-05-09T13:00:01.703Z,22.60
2024-05-09T13:26:10.922Z,22.60
2024-05-09T13:28:41.365Z,22.50
2024-05-09T13:31:17.304Z,22.50
2024-05-09T13:33:48.645Z,22.70
2024-05-09T13:36:26.806Z,22.50
2024-05-09T13:38:58.020Z,22.30
2024-05-09T13:41:34.964Z,22.30
2024-05-09T13:44:07.561Z,22.50
2024-05-09T13:46:46.029Z,22.40
2024-05-09T13:49:18.341Z,22.40
2024-05-09T13:51:52.076Z,22.50
2024-05-09T13:54:22.769Z,22.50
2024-05-09T13:57:00.168Z,22.70
2024-05-09T13:59:30.406Z,22.40
2024-05-09T14:02:04.860Z,21.80
2024-05-09T14:04:37.367Z,21.60
2024-05-09T14:07:12.271Z,21.70
2024-05-09T14:09:50.875Z,21.90
2024-05-09T14:12:27.287Z,22.10
2024-05-09T14:14:57.287Z,22.10
2024-05-09T14:17:40.883Z,22.40
2024-05-09T14:20:14.098Z,22.20
2024-05-09T14:22:50.509Z,22.50
2024-05-09T14:25:23.762Z,22.40
2024-05-09T14:28:11.558Z,22.40
2024-05-09T14:30:43.204Z,22.10
2024-05-09T14:33:25.104Z,22.00
2024-05-09T14:35:56.279Z,21.80
2024-05-09T14:38:36.034Z,21.50
2024-05-09T14:41:15.331Z,21.50
2024-05-09T14:43:52.244Z,21.70
2024-05-09T14:46:24.108Z,21.70
2024-05-09T14:48:59.729Z,21.70
2024-05-09T14:51:30.220Z,21.60
2024-05-09T14:54:04.703Z,21.50
2024-05-09T14:56:40.260Z,21.80
2024-05-09T14:59:20.010Z,22.00
2024-05-09T15:01:51.073Z,21.90
2024-05-09T15:04:24.943Z,21.70
2024-05-09T15:06:56.700Z,21.60
2024-05-09T15:09:31.265Z,21.60
2024-05-09T15:12:03.962Z,21.50
2024-05-09T15:14:53.268Z,21.50
2024-05-09T15:17:27.474Z,21.70
2024-05-09T15:20:09.232Z,21.70
2024-05-09T15:22:40.553Z,21.70
2024-05-09T15:25:18.404Z,21.60
2024-05-09T15:27:51.662Z,21.70
2024-05-09T15:30:32.157Z,21.50
2024-05-09T15:33:11.112Z,21.60
2024-05-09T15:35:48.084Z,21.40
2024-05-09T15:38:19.174Z,21.40
2024-05-09T15:40:52.573Z,21.70
2024-05-09T15:43:23.317Z,21.50
2024-05-09T15:46:01.189Z,21.30
2024-05-09T15:48:32.012Z,21.30
2024-05-09T15:51:10.669Z,21.30
2024-05-09T15:53:42.163Z,21.20
2024-05-09T15:56:23.583Z,21.00
2024-05-09T15:59:01.688Z,21.00
2024-05-09T16:05:38.679Z,21.10
2024-05-09T16:08:22.062Z,21.10
2024-05-09T16:10:55.575Z,21.00
2024-05-09T16:13:31.101Z,21.30
2024-05-09T16:16:08.034Z,21.20
2024-05-09T16:21:33.697Z,21.00
2024-05-09T16:24:05.929Z,21.10
2024-05-09T16:26:39.768Z,21.10
2024-05-09T16:29:10.316Z,21.20
2024-05-09T16:32:03.570Z,21.10
2024-05-09T16:34:41.710Z,21.00
2024-05-09T16:37:19.118Z,20.80
2024-05-09T16:39:53.529Z,20.90
2024-05-09T16:42:29.204Z,20.70
2024-05-09T16:44:59.493Z,20.60
2024-05-09T16:47:37.862Z,20.50
2024-05-09T16:50:12.927Z,20.40
2024-05-09T16:53:02.479Z,20.40
2024-05-09T16:55:34.298Z,20.20
2024-05-09T16:58:16.237Z,20.00
2024-05-09T17:00:48.215Z,19.90
2024-05-09T17:03:22.992Z,19.70
2024-05-09T17:05:59.123Z,19.50
2024-05-09T17:08:36.366Z,19.50
2024-05-09T17:11:09.752Z,19.40
2024-05-09T17:13:47.984Z,19.40
2024-05-09T17:16:24.270Z,19.30
2024-05-09T17:18:58.214Z,19.20
2024-05-09T17:21:36.858Z,18.90
2024-05-09T17:24:17.546Z,18.70
2024-05-09T17:26:55.285Z,18.50
2024-05-09T17:29:28.115Z,18.40
2024-05-09T17:32:02.144Z,18.20
2024-05-09T17:34:33.991Z,18.20
2024-05-09T17:37:18.044Z,18.20
2024-05-09T17:39:51.964Z,18.20
2024-05-09T17:42:25.996Z,18.00
2024-05-09T17:44:56.344Z,17.90
2024-05-09T17:47:32.355Z,17.90
2024-05-09T17:50:04.308Z,17.90
2024-05-09T17:52:37.965Z,17.80
2024-05-09T17:55:13.179Z,17.70
2024-05-09T17:58:02.674Z,17.40
2024-05-09T18:00:39.608Z,17.30
2024-05-09T18:03:16.393Z,17.10
2024-05-09T18:05:47.534Z,16.90
2024-05-09T18:08:21.122Z,16.70
2024-05-09T18:10:58.206Z,16.60
2024-05-09T18:13:33.747Z,16.50
2024-05-09T18:16:07.563Z,16.30
2024-05-09T18:18:44.937Z,16.20
2024-05-09T18:21:49.069Z,16.10
2024-05-09T18:24:34.404Z,16.00
2024-05-09T18:27:12.068Z,15.90
2024-05-09T18:30:07.398Z,15.90
2024-05-09T18:32:41.845Z,15.90
2024-05-09T18:35:16.089Z,15.70
2024-05-09T18:37:54.056Z,15.60
2024-05-09T18:41:07.113Z,15.50
2024-05-09T18:44:03.760Z,15.50
2024-05-09T18:46:48.804Z,15.40
2024-05-09T18:49:32.452Z,15.20
2024-05-09T18:52:40.059Z,15.00
2024-05-09T18:55:28.697Z,14.90
2024-05-09T18:58:38.238Z,14.80
2024-05-09T19:02:12.428Z,14.70
2024-05-09T19:05:08.035Z,14.50
2024-05-09T19:08:03.593Z,14.40
2024-05-09T19:10:53.623Z,14.40
2024-05-09T19:13:34.454Z,14.30
2024-05-09T19:16:17.785Z,14.10
2024-05-09T19:19:03.220Z,13.90
2024-05-09T19:21:58.227Z,13.90
2024-05-09T19:24:34.832Z,13.70
2024-05-09T19:27:08.697Z,13.60
2024-05-09T19:29:38.978Z,13.50
2024-05-09T19:32:12.063Z,13.40
2024-05-09T19:34:44.622Z,13.30
2024-05-09T19:37:18.433Z,13.20
2024-05-09T19:39:55.077Z,13.30
2024-05-09T19:42:53.005Z,13.10
2024-05-09T19:45:36.884Z,12.90
2024-05-09T19:48:21.362Z,12.70
2024-05-09T19:51:08.727Z,12.60
2024-05-09T19:54:03.279Z,12.40
2024-05-09T19:56:51.456Z,12.30
2024-05-09T19:59:38.860Z,12.20
2024-05-09T20:02:18.575Z,12.10
2024-05-09T20:05:11.784Z,12.10
2024-05-09T20:07:57.073Z,12.00
2024-05-09T20:10:44.335Z,12.00
2024-05-09T20:13:28.863Z,11.90
2024-05-09T20:16:23.516Z,11.70
2024-05-09T20:19:34.632Z,11.70
2024-05-09T20:22:16.277Z,11.60
2024-05-09T20:25:02.767Z,11.70
2024-05-09T20:27:46.082Z,11.70
2024-05-09T20:30:38.975Z,11.60
2024-05-09T20:33:23.448Z,11.70
2024-05-09T20:36:07.737Z,11.70
2024-05-09T20:38:48.568Z,11.60
2024-05-09T20:41:37.227Z,11.60
2024-05-09T20:44:17.558Z,11.50
2024-05-09T20:47:07.484Z,11.50
2024-05-09T20:49:46.430Z,11.40
2024-05-09T20:52:30.879Z,11.40
2024-05-09T20:55:14.450Z,11.40
2024-05-09T20:58:23.522Z,11.20
2024-05-09T21:01:05.952Z,11.10
2024-05-09T21:03:52.285Z,11.20
2024-05-09T21:06:26.897Z,11.10
2024-05-09T21:09:05.247Z,10.90
2024-05-09T21:11:34.527Z,10.90
2024-05-09T21:14:10.920Z,10.80
2024-05-09T21:16:41.666Z,10.80
2024-05-09T21:19:15.577Z,10.70
2024-05-09T21:21:45.552Z,10.60
2024-05-09T21:24:18.559Z,10.50
2024-05-09T21:26:48.239Z,10.40
2024-05-09T21:29:24.321Z,10.40
2024-05-09T21:31:57.017Z,10.50
2024-05-09T21:34:31.221Z,10.40
2024-05-09T21:37:06.885Z,10.40
2024-05-09T21:39:41.741Z,10.30
2024-05-09T21:42:11.340Z,10.30
2024-05-09T21:44:49.559Z,10.20
2024-05-09T21:47:21.298Z,10.20
2024-05-09T21:49:55.677Z,10.10
2024-05-09T21:52:25.940Z,10.20
2024-05-09T21:54:58.651Z,10.10
2024-05-09T21:57:29.160Z,10.10
2024-05-09T22:00:17.497Z,10.00
2024-05-09T22:02:55.192Z,9.90
2024-05-09T22:05:43.377Z,9.90
2024-05-09T22:08:14.674Z,9.80
2024-05-09T22:10:48.788Z,10.00
2024-05-09T22:13:21.414Z,9.90
2024-05-09T22:16:04.761Z,10.00
2024-05-09T22:18:35.147Z,10.10
2024-05-09T22:21:08.519Z,10.10
2024-05-09T22:23:38.394Z,10.10
2024-05-09T22:26:11.436Z,10.20
2024-05-09T22:28:41.337Z,10.10
2024-05-09T22:31:19.872Z,10.20
2024-05-09T22:33:50.356Z,10.10
2024-05-09T22:36:23.778Z,10.10
2024-05-09T22:38:57.092Z,10.00
2024-05-09T22:41:30.117Z,10.00
2024-05-09T22:44:00.704Z,9.80
2024-05-09T22:46:37.539Z,9.90
2024-05-09T22:49:07.915Z,9.90
2024-05-09T22:51:41.008Z,9.80
2024-05-09T22:54:10.774Z,9.70
2024-05-09T22:56:49.857Z,9.90
2024-05-09T22:59:20.701Z,9.80
2024-05-09T23:01:56.756Z,9.90
2024-05-09T23:04:26.678Z,10.00
2024-05-09T23:07:39.259Z,10.10
2024-05-09T23:10:21.478Z,10.10
2024-05-09T23:12:58.810Z,10.10
2024-05-09T23:15:32.528Z,10.20
2024-05-09T23:18:10.206Z,10.30
2024-05-09T23:20:45.627Z,10.40
2024-05-09T23:23:16.437Z,10.30
2024-05-09T23:25:52.178Z,10.20
2024-05-09T23:28:22.661Z,10.30
2024-05-09T23:30:56.742Z,10.50
2024-05-09T23:33:29.730Z,10.70
2024-05-09T23:36:02.287Z,10.70
2024-05-09T23:38:32.876Z,10.70
2024-05-09T23:41:05.420Z,10.80
2024-05-09T23:43:37.260Z,10.70
2024-05-09T23:46:11.052Z,10.80
2024-05-09T23:48:47.850Z,10.90
2024-05-09T23:51:18.019Z,10.80
2024-05-09T23:53:51.498Z,10.80
2024-05-09T23:56:22.562Z,10.70
2024-05-09T23:58:55.135Z,10.70
